sensor_id;sensor_type;location;lat;lon;timestamp;P1;durP1;ratioP1;P2;durP2;ratioP2
49139;SDS011;34959;49.310;8.646;2023-12-07T00:01:03;2.03;;;1.30;;
49139;SDS011;34959;49.310;8.646;2023-12-07T00:03:28;2.90;;;1.60;;
49139;SDS011;34959;49.310;8.646;2023-12-07T00:05:54;2.38;;;1.30;;
49139;SDS011;34959;49.310;8.646;2023-12-07T00:08:19;2.10;;;1.40;;
49139;SDS011;34959;49.310;8.646;2023-12-07T00:10:44;8.10;;;2.25;;
49139;SDS011;34959;49.310;8.646;2023-12-07T00:13:10;9.60;;;2.05;;
49139;SDS011;34959;49.310;8.646;2023-12-07T00:15:36;8.93;;;1.92;;
49139;SDS011;34959;49.310;8.646;2023-12-07T00:18:01;6.85;;;1.90;;
49139;SDS011;34959;49.310;8.646;2023-12-07T00:20:28;7.97;;;2.00;;
49139;SDS011;34959;49.310;8.646;2023-12-07T00:22:53;5.28;;;1.83;;
49139;SDS011;34959;49.310;8.646;2023-12-07T00:25:19;7.32;;;2.10;;
49139;SDS011;34959;49.310;8.646;2023-12-07T00:27:44;4.60;;;2.00;;
49139;SDS011;34959;49.310;8.646;2023-12-07T00:30:10;4.10;;;2.10;;
49139;SDS011;34959;49.310;8.646;2023-12-07T00:32:36;5.28;;;2.03;;
49139;SDS011;34959;49.310;8.646;2023-12-07T00:35:01;8.40;;;2.50;;
49139;SDS011;34959;49.310;8.646;2023-12-07T00:37:27;4.13;;;1.90;;
49139;SDS011;34959;49.310;8.646;2023-12-07T00:39:52;3.10;;;2.25;;
49139;SDS011;34959;49.310;8.646;2023-12-07T00:42:17;4.15;;;2.38;;
49139;SDS011;34959;49.310;8.646;2023-12-07T00:44:43;2.85;;;1.80;;
49139;SDS011;34959;49.310;8.646;2023-12-07T00:47:08;3.80;;;1.83;;
49139;SDS011;34959;49.310;8.646;2023-12-07T00:49:37;4.13;;;2.20;;
49139;SDS011;34959;49.310;8.646;2023-12-07T00:52:03;3.25;;;2.20;;
49139;SDS011;34959;49.310;8.646;2023-12-07T00:54:28;2.83;;;2.10;;
49139;SDS011;34959;49.310;8.646;2023-12-07T00:56:54;4.50;;;2.03;;
49139;SDS011;34959;49.310;8.646;2023-12-07T00:59:19;4.05;;;2.00;;
49139;SDS011;34959;49.310;8.646;2023-12-07T01:01:45;4.60;;;2.40;;
49139;SDS011;34959;49.310;8.646;2023-12-07T01:04:10;5.90;;;2.10;;
49139;SDS011;34959;49.310;8.646;2023-12-07T01:06:36;3.42;;;2.20;;
49139;SDS011;34959;49.310;8.646;2023-12-07T01:09:01;6.05;;;2.38;;
49139;SDS011;34959;49.310;8.646;2023-12-07T01:11:28;4.72;;;2.28;;
49139;SDS011;34959;49.310;8.646;2023-12-07T01:13:54;2.67;;;2.00;;
49139;SDS011;34959;49.310;8.646;2023-12-07T01:16:19;4.32;;;2.15;;
49139;SDS011;34959;49.310;8.646;2023-12-07T01:18:44;6.38;;;2.00;;
49139;SDS011;34959;49.310;8.646;2023-12-07T01:21:10;12.18;;;2.35;;
49139;SDS011;34959;49.310;8.646;2023-12-07T01:23:35;5.18;;;2.22;;
49139;SDS011;34959;49.310;8.646;2023-12-07T01:26:01;4.85;;;2.20;;
49139;SDS011;34959;49.310;8.646;2023-12-07T01:28:27;7.82;;;2.35;;
49139;SDS011;34959;49.310;8.646;2023-12-07T01:30:53;9.27;;;2.13;;
49139;SDS011;34959;49.310;8.646;2023-12-07T01:33:18;5.80;;;2.20;;
49139;SDS011;34959;49.310;8.646;2023-12-07T01:35:44;3.72;;;1.95;;
49139;SDS011;34959;49.310;8.646;2023-12-07T01:38:09;2.70;;;1.80;;
49139;SDS011;34959;49.310;8.646;2023-12-07T01:40:34;2.75;;;1.92;;
49139;SDS011;34959;49.310;8.646;2023-12-07T01:43:00;5.72;;;2.17;;
49139;SDS011;34959;49.310;8.646;2023-12-07T01:45:25;3.15;;;1.88;;
49139;SDS011;34959;49.310;8.646;2023-12-07T01:47:51;4.18;;;1.98;;
49139;SDS011;34959;49.310;8.646;2023-12-07T01:50:21;3.38;;;1.70;;
49139;SDS011;34959;49.310;8.646;2023-12-07T01:52:49;2.33;;;1.83;;
49139;SDS011;34959;49.310;8.646;2023-12-07T01:55:17;2.85;;;1.50;;
49139;SDS011;34959;49.310;8.646;2023-12-07T01:57:43;5.07;;;1.70;;
49139;SDS011;34959;49.310;8.646;2023-12-07T02:00:10;3.38;;;1.50;;
49139;SDS011;34959;49.310;8.646;2023-12-07T02:02:36;2.72;;;1.67;;
49139;SDS011;34959;49.310;8.646;2023-12-07T02:05:02;2.42;;;1.33;;
49139;SDS011;34959;49.310;8.646;2023-12-07T02:07:28;3.38;;;1.77;;
49139;SDS011;34959;49.310;8.646;2023-12-07T02:09:54;2.20;;;1.40;;
49139;SDS011;34959;49.310;8.646;2023-12-07T02:12:20;3.42;;;1.58;;
49139;SDS011;34959;49.310;8.646;2023-12-07T02:14:45;2.88;;;1.65;;
49139;SDS011;34959;49.310;8.646;2023-12-07T02:17:17;2.75;;;1.40;;
49139;SDS011;34959;49.310;8.646;2023-12-07T02:19:51;2.92;;;1.52;;
49139;SDS011;34959;49.310;8.646;2023-12-07T02:22:22;2.20;;;1.50;;
49139;SDS011;34959;49.310;8.646;2023-12-07T02:25:08;1.60;;;1.30;;
49139;SDS011;34959;49.310;8.646;2023-12-07T02:27:35;3.97;;;1.30;;
49139;SDS011;34959;49.310;8.646;2023-12-07T02:30:03;1.80;;;1.20;;
49139;SDS011;34959;49.310;8.646;2023-12-07T02:32:30;5.00;;;1.40;;
49139;SDS011;34959;49.310;8.646;2023-12-07T02:34:55;3.45;;;1.52;;
49139;SDS011;34959;49.310;8.646;2023-12-07T02:37:21;2.17;;;1.48;;
49139;SDS011;34959;49.310;8.646;2023-12-07T02:39:47;2.05;;;1.42;;
49139;SDS011;34959;49.310;8.646;2023-12-07T02:42:13;2.58;;;1.50;;
49139;SDS011;34959;49.310;8.646;2023-12-07T02:44:39;4.15;;;1.40;;
49139;SDS011;34959;49.310;8.646;2023-12-07T02:47:05;2.08;;;1.20;;
49139;SDS011;34959;49.310;8.646;2023-12-07T02:49:30;2.63;;;1.33;;
49139;SDS011;34959;49.310;8.646;2023-12-07T02:51:56;2.15;;;1.40;;
49139;SDS011;34959;49.310;8.646;2023-12-07T02:54:21;3.10;;;1.52;;
49139;SDS011;34959;49.310;8.646;2023-12-07T02:56:48;2.00;;;1.20;;
49139;SDS011;34959;49.310;8.646;2023-12-07T02:59:13;2.15;;;1.38;;
49139;SDS011;34959;49.310;8.646;2023-12-07T03:01:39;1.98;;;1.40;;
49139;SDS011;34959;49.310;8.646;2023-12-07T03:04:04;2.20;;;1.33;;
49139;SDS011;34959;49.310;8.646;2023-12-07T03:06:29;4.15;;;1.60;;
49139;SDS011;34959;49.310;8.646;2023-12-07T03:08:55;1.70;;;1.10;;
49139;SDS011;34959;49.310;8.646;2023-12-07T03:11:21;2.13;;;1.20;;
49139;SDS011;34959;49.310;8.646;2023-12-07T03:13:46;2.92;;;1.30;;
49139;SDS011;34959;49.310;8.646;2023-12-07T03:16:12;2.00;;;1.20;;
49139;SDS011;34959;49.310;8.646;2023-12-07T03:18:37;2.42;;;1.40;;
49139;SDS011;34959;49.310;8.646;2023-12-07T03:21:03;1.70;;;1.30;;
49139;SDS011;34959;49.310;8.646;2023-12-07T03:23:28;1.63;;;1.10;;
49139;SDS011;34959;49.310;8.646;2023-12-07T03:25:53;1.75;;;1.25;;
49139;SDS011;34959;49.310;8.646;2023-12-07T03:28:20;1.85;;;1.30;;
49139;SDS011;34959;49.310;8.646;2023-12-07T03:30:46;2.25;;;1.30;;
49139;SDS011;34959;49.310;8.646;2023-12-07T03:33:11;1.73;;;1.20;;
49139;SDS011;34959;49.310;8.646;2023-12-07T03:35:36;2.20;;;1.10;;
49139;SDS011;34959;49.310;8.646;2023-12-07T03:38:02;1.75;;;1.38;;
49139;SDS011;34959;49.310;8.646;2023-12-07T03:40:27;2.67;;;1.45;;
49139;SDS011;34959;49.310;8.646;2023-12-07T03:42:53;1.90;;;1.27;;
49139;SDS011;34959;49.310;8.646;2023-12-07T03:45:18;1.77;;;1.27;;
49139;SDS011;34959;49.310;8.646;2023-12-07T03:47:43;2.40;;;1.30;;
49139;SDS011;34959;49.310;8.646;2023-12-07T03:50:09;1.42;;;1.00;;
49139;SDS011;34959;49.310;8.646;2023-12-07T03:52:34;1.55;;;1.00;;
49139;SDS011;34959;49.310;8.646;2023-12-07T03:55:00;2.45;;;1.08;;
49139;SDS011;34959;49.310;8.646;2023-12-07T03:57:25;1.63;;;1.10;;
49139;SDS011;34959;49.310;8.646;2023-12-07T03:59:50;4.72;;;1.52;;
49139;SDS011;34959;49.310;8.646;2023-12-07T04:02:17;1.70;;;1.10;;
49139;SDS011;34959;49.310;8.646;2023-12-07T04:04:42;1.92;;;1.13;;
49139;SDS011;34959;49.310;8.646;2023-12-07T04:07:08;7.82;;;1.40;;
49139;SDS011;34959;49.310;8.646;2023-12-07T04:09:33;1.67;;;1.23;;
49139;SDS011;34959;49.310;8.646;2023-12-07T04:11:58;1.50;;;1.20;;
49139;SDS011;34959;49.310;8.646;2023-12-07T04:14:24;3.03;;;1.35;;
49139;SDS011;34959;49.310;8.646;2023-12-07T04:16:49;1.52;;;1.10;;
49139;SDS011;34959;49.310;8.646;2023-12-07T04:19:15;1.90;;;1.10;;
49139;SDS011;34959;49.310;8.646;2023-12-07T04:21:40;1.73;;;1.10;;
49139;SDS011;34959;49.310;8.646;2023-12-07T04:24:06;1.50;;;1.17;;
49139;SDS011;34959;49.310;8.646;2023-12-07T04:26:31;2.35;;;1.00;;
49139;SDS011;34959;49.310;8.646;2023-12-07T04:28:57;4.80;;;1.80;;
49139;SDS011;34959;49.310;8.646;2023-12-07T04:31:22;1.13;;;0.90;;
49139;SDS011;34959;49.310;8.646;2023-12-07T04:33:47;1.70;;;1.10;;
49139;SDS011;34959;49.310;8.646;2023-12-07T04:36:13;1.40;;;0.90;;
49139;SDS011;34959;49.310;8.646;2023-12-07T04:38:38;2.03;;;1.10;;
49139;SDS011;34959;49.310;8.646;2023-12-07T04:41:05;1.00;;;0.90;;
49139;SDS011;34959;49.310;8.646;2023-12-07T04:43:30;2.08;;;1.02;;
49139;SDS011;34959;49.310;8.646;2023-12-07T04:45:56;1.52;;;0.98;;
49139;SDS011;34959;49.310;8.646;2023-12-07T04:48:21;1.75;;;1.27;;
49139;SDS011;34959;49.310;8.646;2023-12-07T04:50:46;2.42;;;1.20;;
49139;SDS011;34959;49.310;8.646;2023-12-07T04:53:12;1.30;;;1.08;;
49139;SDS011;34959;49.310;8.646;2023-12-07T04:55:37;1.83;;;1.00;;
49139;SDS011;34959;49.310;8.646;2023-12-07T04:58:02;1.30;;;1.00;;
49139;SDS011;34959;49.310;8.646;2023-12-07T05:00:28;1.40;;;1.08;;
49139;SDS011;34959;49.310;8.646;2023-12-07T05:02:53;1.70;;;1.20;;
49139;SDS011;34959;49.310;8.646;2023-12-07T05:05:18;2.45;;;0.80;;
49139;SDS011;34959;49.310;8.646;2023-12-07T05:07:44;4.05;;;1.13;;
49139;SDS011;34959;49.310;8.646;2023-12-07T05:10:09;2.30;;;1.10;;
49139;SDS011;34959;49.310;8.646;2023-12-07T05:12:35;2.75;;;1.17;;
49139;SDS011;34959;49.310;8.646;2023-12-07T05:15:01;1.55;;;1.05;;
49139;SDS011;34959;49.310;8.646;2023-12-07T05:17:28;1.25;;;0.98;;
49139;SDS011;34959;49.310;8.646;2023-12-07T05:19:53;1.95;;;1.23;;
49139;SDS011;34959;49.310;8.646;2023-12-07T05:22:18;1.70;;;1.10;;
49139;SDS011;34959;49.310;8.646;2023-12-07T05:24:44;4.05;;;1.13;;
49139;SDS011;34959;49.310;8.646;2023-12-07T05:27:09;2.40;;;1.20;;
49139;SDS011;34959;49.310;8.646;2023-12-07T05:29:35;1.98;;;1.20;;
49139;SDS011;34959;49.310;8.646;2023-12-07T05:32:00;1.75;;;1.00;;
49139;SDS011;34959;49.310;8.646;2023-12-07T05:34:26;1.58;;;1.00;;
49139;SDS011;34959;49.310;8.646;2023-12-07T05:36:51;1.63;;;1.00;;
49139;SDS011;34959;49.310;8.646;2023-12-07T05:39:16;1.75;;;1.08;;
49139;SDS011;34959;49.310;8.646;2023-12-07T05:41:42;1.52;;;1.10;;
49139;SDS011;34959;49.310;8.646;2023-12-07T05:44:08;1.10;;;1.00;;
49139;SDS011;34959;49.310;8.646;2023-12-07T05:46:35;1.80;;;1.10;;
49139;SDS011;34959;49.310;8.646;2023-12-07T05:49:01;3.85;;;1.10;;
49139;SDS011;34959;49.310;8.646;2023-12-07T05:51:26;5.47;;;0.82;;
49139;SDS011;34959;49.310;8.646;2023-12-07T05:53:51;2.47;;;0.88;;
49139;SDS011;34959;49.310;8.646;2023-12-07T05:56:20;4.15;;;0.82;;
49139;SDS011;34959;49.310;8.646;2023-12-07T05:58:46;1.50;;;0.70;;
49139;SDS011;34959;49.310;8.646;2023-12-07T06:01:12;1.40;;;0.80;;
49139;SDS011;34959;49.310;8.646;2023-12-07T06:03:37;11.75;;;1.27;;
49139;SDS011;34959;49.310;8.646;2023-12-07T06:06:03;5.90;;;1.30;;
49139;SDS011;34959;49.310;8.646;2023-12-07T06:08:29;2.55;;;1.20;;
49139;SDS011;34959;49.310;8.646;2023-12-07T06:10:54;2.38;;;1.20;;
49139;SDS011;34959;49.310;8.646;2023-12-07T06:13:19;5.20;;;1.20;;
49139;SDS011;34959;49.310;8.646;2023-12-07T06:15:45;1.27;;;1.02;;
49139;SDS011;34959;49.310;8.646;2023-12-07T06:18:10;4.10;;;1.38;;
49139;SDS011;34959;49.310;8.646;2023-12-07T06:20:35;2.22;;;1.10;;
49139;SDS011;34959;49.310;8.646;2023-12-07T06:23:01;2.30;;;1.20;;
49139;SDS011;34959;49.310;8.646;2023-12-07T06:25:29;1.88;;;1.20;;
49139;SDS011;34959;49.310;8.646;2023-12-07T06:27:54;1.98;;;1.20;;
49139;SDS011;34959;49.310;8.646;2023-12-07T06:30:21;2.47;;;1.45;;
49139;SDS011;34959;49.310;8.646;2023-12-07T06:32:46;1.65;;;1.20;;
49139;SDS011;34959;49.310;8.646;2023-12-07T06:35:12;1.20;;;1.00;;
49139;SDS011;34959;49.310;8.646;2023-12-07T06:37:37;1.55;;;1.30;;
49139;SDS011;34959;49.310;8.646;2023-12-07T06:40:03;1.85;;;1.30;;
49139;SDS011;34959;49.310;8.646;2023-12-07T06:42:29;1.85;;;1.30;;
49139;SDS011;34959;49.310;8.646;2023-12-07T06:44:55;1.60;;;1.30;;
49139;SDS011;34959;49.310;8.646;2023-12-07T06:47:20;1.63;;;1.20;;
49139;SDS011;34959;49.310;8.646;2023-12-07T06:49:45;4.82;;;1.50;;
49139;SDS011;34959;49.310;8.646;2023-12-07T06:52:11;3.15;;;1.40;;
49139;SDS011;34959;49.310;8.646;2023-12-07T06:54:37;2.30;;;1.50;;
49139;SDS011;34959;49.310;8.646;2023-12-07T06:57:03;1.95;;;1.30;;
49139;SDS011;34959;49.310;8.646;2023-12-07T06:59:29;7.95;;;1.50;;
49139;SDS011;34959;49.310;8.646;2023-12-07T07:01:55;3.30;;;1.20;;
49139;SDS011;34959;49.310;8.646;2023-12-07T07:04:20;3.60;;;1.42;;
49139;SDS011;34959;49.310;8.646;2023-12-07T07:06:45;2.25;;;1.55;;
49139;SDS011;34959;49.310;8.646;2023-12-07T07:09:11;2.08;;;1.67;;
49139;SDS011;34959;49.310;8.646;2023-12-07T07:11:38;1.83;;;1.27;;
49139;SDS011;34959;49.310;8.646;2023-12-07T07:14:03;3.58;;;1.60;;
49139;SDS011;34959;49.310;8.646;2023-12-07T07:16:29;1.92;;;1.50;;
49139;SDS011;34959;49.310;8.646;2023-12-07T07:18:55;2.30;;;1.48;;
49139;SDS011;34959;49.310;8.646;2023-12-07T07:21:20;2.47;;;1.60;;
49139;SDS011;34959;49.310;8.646;2023-12-07T07:23:46;3.40;;;1.40;;
49139;SDS011;34959;49.310;8.646;2023-12-07T07:26:11;2.25;;;1.48;;
49139;SDS011;34959;49.310;8.646;2023-12-07T07:28:41;2.20;;;1.50;;
49139;SDS011;34959;49.310;8.646;2023-12-07T07:31:07;2.92;;;1.60;;
49139;SDS011;34959;49.310;8.646;2023-12-07T07:33:33;4.68;;;1.75;;
49139;SDS011;34959;49.310;8.646;2023-12-07T07:35:58;3.35;;;1.80;;
49139;SDS011;34959;49.310;8.646;2023-12-07T07:38:24;2.55;;;1.70;;
49139;SDS011;34959;49.310;8.646;2023-12-07T07:40:49;2.15;;;1.30;;
49139;SDS011;34959;49.310;8.646;2023-12-07T07:43:15;2.50;;;1.80;;
49139;SDS011;34959;49.310;8.646;2023-12-07T07:45:40;4.88;;;2.03;;
49139;SDS011;34959;49.310;8.646;2023-12-07T07:48:06;5.55;;;1.58;;
49139;SDS011;34959;49.310;8.646;2023-12-07T07:50:31;3.20;;;1.60;;
49139;SDS011;34959;49.310;8.646;2023-12-07T07:52:57;4.82;;;1.65;;
49139;SDS011;34959;49.310;8.646;2023-12-07T07:55:22;2.08;;;1.58;;
49139;SDS011;34959;49.310;8.646;2023-12-07T07:57:47;4.45;;;1.73;;
49139;SDS011;34959;49.310;8.646;2023-12-07T08:00:13;3.22;;;1.92;;
49139;SDS011;34959;49.310;8.646;2023-12-07T08:02:39;9.80;;;1.50;;
49139;SDS011;34959;49.310;8.646;2023-12-07T08:05:04;6.22;;;1.67;;
49139;SDS011;34959;49.310;8.646;2023-12-07T08:07:30;2.40;;;1.73;;
49139;SDS011;34959;49.310;8.646;2023-12-07T08:09:55;2.47;;;1.85;;
49139;SDS011;34959;49.310;8.646;2023-12-07T08:12:21;2.63;;;1.83;;
49139;SDS011;34959;49.310;8.646;2023-12-07T08:14:49;2.25;;;1.70;;
49139;SDS011;34959;49.310;8.646;2023-12-07T08:17:14;2.05;;;1.63;;
49139;SDS011;34959;49.310;8.646;2023-12-07T08:19:43;2.55;;;1.83;;
49139;SDS011;34959;49.310;8.646;2023-12-07T08:22:08;2.10;;;1.40;;
49139;SDS011;34959;49.310;8.646;2023-12-07T08:24:34;3.67;;;1.60;;
49139;SDS011;34959;49.310;8.646;2023-12-07T08:26:59;3.28;;;2.15;;
49139;SDS011;34959;49.310;8.646;2023-12-07T08:29:25;5.38;;;1.75;;
49139;SDS011;34959;49.310;8.646;2023-12-07T08:31:50;4.85;;;2.42;;
49139;SDS011;34959;49.310;8.646;2023-12-07T08:34:16;3.08;;;1.90;;
49139;SDS011;34959;49.310;8.646;2023-12-07T08:36:41;2.20;;;1.80;;
49139;SDS011;34959;49.310;8.646;2023-12-07T08:39:07;3.30;;;1.63;;
49139;SDS011;34959;49.310;8.646;2023-12-07T08:41:35;2.40;;;1.75;;
49139;SDS011;34959;49.310;8.646;2023-12-07T08:44:01;4.75;;;1.85;;
49139;SDS011;34959;49.310;8.646;2023-12-07T08:46:27;6.32;;;2.17;;
49139;SDS011;34959;49.310;8.646;2023-12-07T08:48:52;2.53;;;1.70;;
49139;SDS011;34959;49.310;8.646;2023-12-07T08:51:18;3.22;;;1.95;;
49139;SDS011;34959;49.310;8.646;2023-12-07T08:53:44;3.17;;;1.90;;
49139;SDS011;34959;49.310;8.646;2023-12-07T08:56:10;2.45;;;1.70;;
49139;SDS011;34959;49.310;8.646;2023-12-07T08:58:38;3.10;;;2.15;;
49139;SDS011;34959;49.310;8.646;2023-12-07T09:01:03;3.88;;;1.98;;
49139;SDS011;34959;49.310;8.646;2023-12-07T09:03:30;4.22;;;2.15;;
49139;SDS011;34959;49.310;8.646;2023-12-07T09:05:57;2.78;;;1.80;;
49139;SDS011;34959;49.310;8.646;2023-12-07T09:08:23;2.92;;;2.10;;
49139;SDS011;34959;49.310;8.646;2023-12-07T09:10:48;2.78;;;1.90;;
49139;SDS011;34959;49.310;8.646;2023-12-07T09:13:16;3.55;;;2.13;;
49139;SDS011;34959;49.310;8.646;2023-12-07T09:15:42;3.10;;;2.20;;
49139;SDS011;34959;49.310;8.646;2023-12-07T09:18:07;5.88;;;2.03;;
49139;SDS011;34959;49.310;8.646;2023-12-07T09:20:33;2.50;;;1.90;;
49139;SDS011;34959;49.310;8.646;2023-12-07T09:22:58;3.40;;;2.03;;
49139;SDS011;34959;49.310;8.646;2023-12-07T09:25:24;2.88;;;1.90;;
49139;SDS011;34959;49.310;8.646;2023-12-07T09:27:52;3.20;;;2.28;;
49139;SDS011;34959;49.310;8.646;2023-12-07T09:30:18;3.75;;;2.22;;
49139;SDS011;34959;49.310;8.646;2023-12-07T09:32:43;2.72;;;2.00;;
49139;SDS011;34959;49.310;8.646;2023-12-07T09:35:09;3.45;;;2.22;;
49139;SDS011;34959;49.310;8.646;2023-12-07T09:37:44;5.05;;;2.53;;
49139;SDS011;34959;49.310;8.646;2023-12-07T09:40:14;3.25;;;2.40;;
49139;SDS011;34959;49.310;8.646;2023-12-07T09:42:45;2.95;;;2.20;;
49139;SDS011;34959;49.310;8.646;2023-12-07T09:45:11;3.13;;;2.15;;
49139;SDS011;34959;49.310;8.646;2023-12-07T09:47:37;2.70;;;2.20;;
49139;SDS011;34959;49.310;8.646;2023-12-07T09:50:06;3.47;;;2.20;;
49139;SDS011;34959;49.310;8.646;2023-12-07T09:52:33;16.00;;;10.55;;
49139;SDS011;34959;49.310;8.646;2023-12-07T09:54:59;17.38;;;11.93;;
49139;SDS011;34959;49.310;8.646;2023-12-07T09:57:31;18.42;;;9.38;;
49139;SDS011;34959;49.310;8.646;2023-12-07T09:59:56;12.82;;;8.40;;
49139;SDS011;34959;49.310;8.646;2023-12-07T10:02:22;9.15;;;7.30;;
49139;SDS011;34959;49.310;8.646;2023-12-07T10:04:47;11.00;;;7.53;;
49139;SDS011;34959;49.310;8.646;2023-12-07T10:07:13;11.90;;;7.40;;
49139;SDS011;34959;49.310;8.646;2023-12-07T10:09:39;10.82;;;6.93;;
49139;SDS011;34959;49.310;8.646;2023-12-07T10:12:05;9.68;;;6.30;;
49139;SDS011;34959;49.310;8.646;2023-12-07T10:14:31;8.13;;;5.88;;
49139;SDS011;34959;49.310;8.646;2023-12-07T10:16:58;9.73;;;6.03;;
49139;SDS011;34959;49.310;8.646;2023-12-07T10:19:24;8.55;;;5.80;;
49139;SDS011;34959;49.310;8.646;2023-12-07T10:21:50;8.27;;;5.65;;
49139;SDS011;34959;49.310;8.646;2023-12-07T10:24:17;6.93;;;4.90;;
49139;SDS011;34959;49.310;8.646;2023-12-07T10:26:43;7.53;;;5.38;;
49139;SDS011;34959;49.310;8.646;2023-12-07T10:29:09;7.22;;;5.32;;
49139;SDS011;34959;49.310;8.646;2023-12-07T10:31:36;6.75;;;5.05;;
49139;SDS011;34959;49.310;8.646;2023-12-07T10:34:01;6.30;;;4.75;;
49139;SDS011;34959;49.310;8.646;2023-12-07T10:36:27;7.18;;;5.25;;
49139;SDS011;34959;49.310;8.646;2023-12-07T10:38:53;6.40;;;4.70;;
49139;SDS011;34959;49.310;8.646;2023-12-07T10:41:20;6.72;;;4.80;;
49139;SDS011;34959;49.310;8.646;2023-12-07T10:43:51;6.60;;;4.78;;
49139;SDS011;34959;49.310;8.646;2023-12-07T10:46:19;7.13;;;4.85;;
49139;SDS011;34959;49.310;8.646;2023-12-07T10:48:46;6.63;;;5.07;;
49139;SDS011;34959;49.310;8.646;2023-12-07T10:51:14;5.90;;;4.50;;
49139;SDS011;34959;49.310;8.646;2023-12-07T10:54:04;5.30;;;4.45;;
49139;SDS011;34959;49.310;8.646;2023-12-07T10:56:39;7.63;;;4.75;;
49139;SDS011;34959;49.310;8.646;2023-12-07T10:59:09;5.18;;;4.00;;
49139;SDS011;34959;49.310;8.646;2023-12-07T11:01:44;5.30;;;4.00;;
49139;SDS011;34959;49.310;8.646;2023-12-07T11:04:11;7.93;;;4.50;;
49139;SDS011;34959;49.310;8.646;2023-12-07T11:06:37;6.30;;;3.83;;
49139;SDS011;34959;49.310;8.646;2023-12-07T11:09:06;5.57;;;3.65;;
49139;SDS011;34959;49.310;8.646;2023-12-07T11:11:59;5.53;;;4.00;;
49139;SDS011;34959;49.310;8.646;2023-12-07T11:14:27;6.18;;;4.07;;
49139;SDS011;34959;49.310;8.646;2023-12-07T11:16:53;6.50;;;4.30;;
49139;SDS011;34959;49.310;8.646;2023-12-07T11:22:07;5.78;;;3.50;;
49139;SDS011;34959;49.310;8.646;2023-12-07T11:24:35;7.13;;;3.85;;
49139;SDS011;34959;49.310;8.646;2023-12-07T11:27:01;7.93;;;4.13;;
49139;SDS011;34959;49.310;8.646;2023-12-07T11:29:30;6.93;;;3.53;;
49139;SDS011;34959;49.310;8.646;2023-12-07T11:31:56;8.15;;;4.00;;
49139;SDS011;34959;49.310;8.646;2023-12-07T11:34:38;4.65;;;3.80;;
49139;SDS011;34959;49.310;8.646;2023-12-07T11:37:10;6.72;;;3.67;;
49139;SDS011;34959;49.310;8.646;2023-12-07T11:39:37;4.07;;;3.25;;
49139;SDS011;34959;49.310;8.646;2023-12-07T11:47:03;5.30;;;3.47;;
49139;SDS011;34959;49.310;8.646;2023-12-07T11:49:29;4.80;;;3.58;;
49139;SDS011;34959;49.310;8.646;2023-12-07T11:51:56;7.32;;;3.20;;
49139;SDS011;34959;49.310;8.646;2023-12-07T11:54:22;7.40;;;3.40;;
49139;SDS011;34959;49.310;8.646;2023-12-07T11:56:51;5.88;;;3.53;;
49139;SDS011;34959;49.310;8.646;2023-12-07T11:59:23;5.30;;;3.60;;
49139;SDS011;34959;49.310;8.646;2023-12-07T12:01:51;6.35;;;3.65;;
49139;SDS011;34959;49.310;8.646;2023-12-07T12:04:16;5.20;;;3.58;;
49139;SDS011;34959;49.310;8.646;2023-12-07T12:06:45;4.43;;;3.38;;
49139;SDS011;34959;49.310;8.646;2023-12-07T12:09:14;4.13;;;3.17;;
49139;SDS011;34959;49.310;8.646;2023-12-07T12:14:14;6.82;;;3.55;;
49139;SDS011;34959;49.310;8.646;2023-12-07T12:16:43;4.57;;;3.22;;
49139;SDS011;34959;49.310;8.646;2023-12-07T12:19:10;4.57;;;2.97;;
49139;SDS011;34959;49.310;8.646;2023-12-07T12:21:36;4.28;;;2.97;;
49139;SDS011;34959;49.310;8.646;2023-12-07T12:24:04;6.00;;;3.90;;
49139;SDS011;34959;49.310;8.646;2023-12-07T12:26:30;4.30;;;3.17;;
49139;SDS011;34959;49.310;8.646;2023-12-07T12:28:57;4.50;;;3.22;;
49139;SDS011;34959;49.310;8.646;2023-12-07T12:31:23;4.53;;;3.22;;
49139;SDS011;34959;49.310;8.646;2023-12-07T12:33:48;4.43;;;3.25;;
49139;SDS011;34959;49.310;8.646;2023-12-07T12:36:14;4.43;;;3.33;;
49139;SDS011;34959;49.310;8.646;2023-12-07T12:38:42;4.47;;;3.17;;
49139;SDS011;34959;49.310;8.646;2023-12-07T12:41:07;3.95;;;3.17;;
49139;SDS011;34959;49.310;8.646;2023-12-07T12:43:33;6.15;;;3.17;;
49139;SDS011;34959;49.310;8.646;2023-12-07T12:45:59;3.38;;;2.75;;
49139;SDS011;34959;49.310;8.646;2023-12-07T12:48:24;6.15;;;3.45;;
49139;SDS011;34959;49.310;8.646;2023-12-07T12:50:50;5.20;;;3.40;;
49139;SDS011;34959;49.310;8.646;2023-12-07T12:53:15;4.90;;;3.50;;
49139;SDS011;34959;49.310;8.646;2023-12-07T12:55:41;5.28;;;3.42;;
49139;SDS011;34959;49.310;8.646;2023-12-07T12:58:08;4.25;;;3.08;;
49139;SDS011;34959;49.310;8.646;2023-12-07T13:00:36;7.95;;;3.67;;
49139;SDS011;34959;49.310;8.646;2023-12-07T13:03:03;4.97;;;3.20;;
49139;SDS011;34959;49.310;8.646;2023-12-07T13:05:29;4.22;;;2.97;;
49139;SDS011;34959;49.310;8.646;2023-12-07T13:07:55;4.13;;;3.22;;
49139;SDS011;34959;49.310;8.646;2023-12-07T13:10:21;4.43;;;3.08;;
49139;SDS011;34959;49.310;8.646;2023-12-07T13:12:46;4.13;;;3.08;;
49139;SDS011;34959;49.310;8.646;2023-12-07T13:15:12;4.85;;;3.20;;
49139;SDS011;34959;49.310;8.646;2023-12-07T13:17:38;3.65;;;3.15;;
49139;SDS011;34959;49.310;8.646;2023-12-07T13:20:05;5.50;;;3.40;;
49139;SDS011;34959;49.310;8.646;2023-12-07T13:22:36;4.75;;;3.15;;
49139;SDS011;34959;49.310;8.646;2023-12-07T13:25:02;4.25;;;3.03;;
49139;SDS011;34959;49.310;8.646;2023-12-07T13:27:28;4.18;;;3.10;;
49139;SDS011;34959;49.310;8.646;2023-12-07T13:29:53;4.55;;;3.03;;
49139;SDS011;34959;49.310;8.646;2023-12-07T13:32:19;4.55;;;3.00;;
49139;SDS011;34959;49.310;8.646;2023-12-07T13:34:44;5.03;;;3.38;;
49139;SDS011;34959;49.310;8.646;2023-12-07T13:37:09;5.75;;;3.65;;
49139;SDS011;34959;49.310;8.646;2023-12-07T13:39:35;5.22;;;3.28;;
49139;SDS011;34959;49.310;8.646;2023-12-07T13:42:01;4.35;;;3.15;;
49139;SDS011;34959;49.310;8.646;2023-12-07T13:44:27;4.55;;;3.40;;
49139;SDS011;34959;49.310;8.646;2023-12-07T13:46:52;4.28;;;3.20;;
49139;SDS011;34959;49.310;8.646;2023-12-07T13:49:19;6.47;;;3.20;;
49139;SDS011;34959;49.310;8.646;2023-12-07T13:51:45;4.75;;;3.20;;
49139;SDS011;34959;49.310;8.646;2023-12-07T13:54:11;4.13;;;3.15;;
49139;SDS011;34959;49.310;8.646;2023-12-07T13:56:37;4.88;;;2.67;;
49139;SDS011;34959;49.310;8.646;2023-12-07T13:59:02;6.05;;;3.40;;
49139;SDS011;34959;49.310;8.646;2023-12-07T14:01:28;5.00;;;3.08;;
49139;SDS011;34959;49.310;8.646;2023-12-07T14:03:53;4.63;;;3.05;;
49139;SDS011;34959;49.310;8.646;2023-12-07T14:06:22;5.10;;;3.55;;
49139;SDS011;34959;49.310;8.646;2023-12-07T14:08:52;5.32;;;2.97;;
49139;SDS011;34959;49.310;8.646;2023-12-07T14:11:17;4.30;;;2.95;;
49139;SDS011;34959;49.310;8.646;2023-12-07T14:13:43;3.70;;;3.08;;
49139;SDS011;34959;49.310;8.646;2023-12-07T14:16:11;4.68;;;2.83;;
49139;SDS011;34959;49.310;8.646;2023-12-07T14:18:37;5.25;;;2.85;;
49139;SDS011;34959;49.310;8.646;2023-12-07T14:21:02;4.05;;;2.85;;
49139;SDS011;34959;49.310;8.646;2023-12-07T14:23:28;5.10;;;2.90;;
49139;SDS011;34959;49.310;8.646;2023-12-07T14:25:53;3.33;;;2.67;;
49139;SDS011;34959;49.310;8.646;2023-12-07T14:28:23;4.35;;;3.08;;
49139;SDS011;34959;49.310;8.646;2023-12-07T14:30:49;3.65;;;2.70;;
49139;SDS011;34959;49.310;8.646;2023-12-07T14:33:14;7.50;;;3.08;;
49139;SDS011;34959;49.310;8.646;2023-12-07T14:35:39;3.95;;;2.78;;
49139;SDS011;34959;49.310;8.646;2023-12-07T14:38:05;3.92;;;2.88;;
49139;SDS011;34959;49.310;8.646;2023-12-07T14:40:30;3.97;;;3.00;;
49139;SDS011;34959;49.310;8.646;2023-12-07T14:42:56;5.13;;;2.90;;
49139;SDS011;34959;49.310;8.646;2023-12-07T14:45:22;3.45;;;2.83;;
49139;SDS011;34959;49.310;8.646;2023-12-07T14:47:47;4.30;;;2.95;;
49139;SDS011;34959;49.310;8.646;2023-12-07T14:50:13;4.07;;;2.92;;
49139;SDS011;34959;49.310;8.646;2023-12-07T14:52:39;4.47;;;3.05;;